Time;durP1;ratioP1;P1;durP2;ratioP2;P2;SDS_P1;SDS_P2;PMS_P1;PMS_P2;Temp;Humidity;BMP_temperature;BMP_pressure;BME280_temperature;BME280_humidity;BME280_pressure;Samples;Min_cycle;Max_cycle;Signal;HPM_P1;HPM_P2
2023/07/28 00:02:06;;;;;;;4.57;1.38;;;17.60;54.40;;;;;;5090657;28;20408;-62
2023/07/28 00:04:36;;;;;;;1.58;1.05;;;17.70;53.60;;;;;;5091342;28;20106;-62
2023/07/28 00:07:05;;;;;;;2.65;1.10;;;17.60;53.20;;;;;;5090439;28;20366;-63
2023/07/28 00:09:33;;;;;;;1.85;1.20;;;17.70;53.80;;;;;;5090604;28;20028;-62
2023/07/28 00:12:01;;;;;;;2.17;1.27;;;17.80;54.50;;;;;;5090386;28;20031;-62
2023/07/28 00:14:29;;;;;;;1.80;1.02;;;17.90;53.90;;;;;;5090083;28;20020;-62
2023/07/28 00:16:58;;;;;;;4.07;1.10;;;18.00;54.00;;;;;;5076098;28;20431;-63
2023/07/28 00:19:26;;;;;;;2.55;0.95;;;18.00;53.10;;;;;;5076654;28;20028;-62
2023/07/28 00:21:56;;;;;;;2.13;1.20;;;18.00;53.00;;;;;;5076752;28;20020;-63
2023/07/28 00:24:23;;;;;;;3.47;1.05;;;18.10;53.10;;;;;;5077651;28;20066;-62
2023/07/28 00:26:51;;;;;;;3.10;1.10;;;18.20;53.40;;;;;;5076590;28;20511;-62
2023/07/28 00:29:18;;;;;;;2.95;1.48;;;18.50;53.10;;;;;;5076651;28;20446;-62
2023/07/28 00:31:46;;;;;;;3.28;1.20;;;18.70;53.10;;;;;;5076560;28;20033;-61
2023/07/28 00:34:13;;;;;;;3.88;1.13;;;18.60;52.20;;;;;;5076476;28;20029;-62
2023/07/28 00:36:41;;;;;;;1.52;0.90;;;18.70;52.50;;;;;;5077379;28;20017;-62
2023/07/28 00:39:09;;;;;;;2.50;1.10;;;18.70;51.40;;;;;;5076326;28;20028;-62
2023/07/28 00:41:36;;;;;;;3.65;1.48;;;18.80;52.10;;;;;;5076357;28;20031;-62
2023/07/28 00:44:04;;;;;;;2.38;0.80;;;19.00;51.70;;;;;;5077184;28;20132;-63
2023/07/28 00:46:32;;;;;;;1.23;0.98;;;19.10;50.70;;;;;;5076153;28;20028;-62
2023/07/28 00:49:01;;;;;;;2.20;0.90;;;19.10;51.50;;;;;;5076127;28;20446;-64
2023/07/28 00:51:29;;;;;;;1.77;1.05;;;19.10;51.10;;;;;;5077040;28;20066;-63
2023/07/28 00:53:59;;;;;;;2.35;1.15;;;19.30;50.60;;;;;;5076067;28;20025;-62
2023/07/28 00:56:27;;;;;;;2.05;1.13;;;19.40;51.30;;;;;;5076047;28;20074;-62
2023/07/28 00:58:54;;;;;;;2.13;1.10;;;19.40;50.50;;;;;;5075730;28;20020;-62
2023/07/28 01:01:22;;;;;;;2.55;1.00;;;19.80;50.30;;;;;;5075724;28;20067;-62
2023/07/28 01:03:51;;;;;;;2.30;1.10;;;20.10;49.40;;;;;;5075854;28;20075;-62
2023/07/28 01:06:49;;;;;;;2.13;1.00;;;20.90;47.50;;;;;;5075905;28;20373;-62
2023/07/28 01:09:22;;;;;;;2.75;1.20;;;21.60;47.30;;;;;;5076923;28;20390;-62
2023/07/28 01:11:56;;;;;;;1.92;1.30;;;22.10;46.90;;;;;;5075813;28;20025;-62
2023/07/28 01:14:24;;;;;;;3.10;1.20;;;22.20;45.20;;;;;;5075685;28;20206;-63
2023/07/28 01:16:52;;;;;;;1.33;1.00;;;22.40;45.10;;;;;;5075641;28;20360;-62
2023/07/28 01:19:22;;;;;;;3.38;1.10;;;22.80;44.80;;;;;;5075620;28;20020;-63
2023/07/28 01:22:05;;;;;;;2.47;1.20;;;22.60;44.60;;;;;;5076885;28;20035;-63
2023/07/28 01:25:07;;;;;;;1.88;1.30;;;22.70;44.10;;;;;;5060738;28;20035;-63
2023/07/28 01:27:37;;;;;;;2.15;1.15;;;22.60;43.10;;;;;;5058117;28;20029;-62
2023/07/28 01:30:05;;;;;;;2.50;1.60;;;22.70;43.90;;;;;;5075510;28;20028;-62
2023/07/28 01:32:33;;;;;;;2.88;1.67;;;22.90;43.90;;;;;;5076204;28;20028;-62
2023/07/28 01:35:01;;;;;;;4.53;1.98;;;22.90;43.40;;;;;;5076295;28;20033;-63
2023/07/28 01:37:28;;;;;;;3.20;1.73;;;23.10;44.20;;;;;;5076182;28;20040;-61
2023/07/28 01:39:57;;;;;;;4.10;2.05;;;23.20;43.60;;;;;;5075215;28;20454;-62
2023/07/28 01:42:25;;;;;;;5.18;2.40;;;23.50;43.10;;;;;;5075162;28;20025;-61
2023/07/28 01:44:53;;;;;;;4.97;3.00;;;23.80;42.60;;;;;;5075182;28;20350;-63
2023/07/28 01:47:20;;;;;;;6.22;4.07;;;23.80;43.20;;;;;;5076020;28;20077;-62
2023/07/28 01:49:50;;;;;;;5.25;3.70;;;23.50;42.50;;;;;;5075259;28;20024;-62
2023/07/28 01:52:18;;;;;;;5.15;3.90;;;23.40;42.60;;;;;;5074771;28;20470;-60
2023/07/28 01:54:45;;;;;;;8.70;4.57;;;23.30;43.30;;;;;;5075999;28;20320;-61
2023/07/28 01:57:12;;;;;;;7.60;4.88;;;23.90;43.40;;;;;;5075927;28;20142;-61
2023/07/28 01:59:40;;;;;;;6.72;5.03;;;23.70;42.30;;;;;;5075869;28;20020;-61
2023/07/28 02:02:07;;;;;;;10.52;7.25;;;23.70;43.00;;;;;;5075918;28;20507;-61
2023/07/28 02:04:35;;;;;;;11.55;8.25;;;23.90;42.80;;;;;;5074707;28;20076;-63
2023/07/28 02:07:02;;;;;;;10.45;8.30;;;23.90;43.00;;;;;;5074899;28;20020;-62
2023/07/28 02:09:30;;;;;;;10.32;8.18;;;24.00;42.70;;;;;;5075720;28;20024;-63
2023/07/28 02:11:58;;;;;;;10.52;6.13;;;24.10;43.10;;;;;;5074697;28;20051;-62
2023/07/28 02:14:25;;;;;;;9.48;6.38;;;24.50;41.70;;;;;;5074542;28;20038;-62
2023/07/28 02:16:53;;;;;;;7.43;5.05;;;24.70;42.70;;;;;;5075497;28;20454;-63
2023/07/28 02:19:20;;;;;;;6.53;4.50;;;24.50;41.90;;;;;;5074595;28;20020;-63
2023/07/28 02:21:48;;;;;;;7.53;5.25;;;24.60;41.50;;;;;;5075514;28;20020;-63
2023/07/28 02:24:15;;;;;;;9.25;5.82;;;24.50;42.10;;;;;;5074127;28;20046;-63
2023/07/28 02:26:43;;;;;;;6.93;3.65;;;24.40;42.30;;;;;;5073853;28;20086;-62
2023/07/28 02:29:10;;;;;;;5.57;2.95;;;24.60;41.70;;;;;;5075277;28;20413;-62
2023/07/28 02:31:38;;;;;;;3.78;2.00;;;24.60;41.30;;;;;;5075323;28;20035;-62
2023/07/28 02:34:05;;;;;;;4.13;2.28;;;24.40;41.50;;;;;;5075225;28;20021;-62
2023/07/28 02:36:33;;;;;;;3.92;2.00;;;24.80;41.50;;;;;;5074177;28;20024;-62
2023/07/28 02:39:01;;;;;;;3.10;1.75;;;25.10;40.40;;;;;;5074031;28;20334;-62
2023/07/28 02:41:28;;;;;;;3.75;1.65;;;24.90;41.20;;;;;;5074277;28;20461;-62
2023/07/28 02:43:56;;;;;;;2.40;1.60;;;25.40;39.70;;;;;;5074228;28;20039;-62
2023/07/28 02:46:25;;;;;;;2.55;0.98;;;25.70;40.00;;;;;;5075124;28;20442;-63
2023/07/28 02:48:53;;;;;;;1.40;0.90;;;25.10;38.90;;;;;;5074476;28;20032;-63
2023/07/28 02:51:20;;;;;;;2.33;0.77;;;24.90;40.10;;;;;;5074078;28;20024;-62
2023/07/28 02:53:48;;;;;;;3.25;1.10;;;24.50;40.00;;;;;;5074928;28;20396;-62
2023/07/28 02:56:15;;;;;;;1.80;0.90;;;24.20;40.90;;;;;;5075164;28;20040;-62
2023/07/28 02:58:43;;;;;;;2.60;1.02;;;24.30;40.10;;;;;;5074152;28;20032;-63
2023/07/28 03:01:11;;;;;;;3.00;1.00;;;24.20;39.70;;;;;;5073842;28;20082;-62
2023/07/28 03:03:38;;;;;;;4.15;0.80;;;25.20;38.90;;;;;;5073767;28;20127;-61
2023/07/28 03:06:06;;;;;;;3.90;0.70;;;25.60;38.00;;;;;;5073626;28;20032;-63
2023/07/28 03:08:33;;;;;;;2.13;0.80;;;25.70;36.90;;;;;;5074277;28;20024;-63
2023/07/28 03:11:04;;;;;;;5.13;0.93;;;26.10;36.80;;;;;;5076051;28;20021;-63
2023/07/28 03:13:31;;;;;;;5.22;1.00;;;25.70;37.20;;;;;;5075037;28;20021;-63
2023/07/28 03:15:59;;;;;;;3.08;0.80;;;25.70;37.00;;;;;;5074408;28;20036;-63
2023/07/28 03:18:26;;;;;;;1.67;0.70;;;26.10;36.50;;;;;;5074761;28;20025;-68
2023/07/28 03:20:54;;;;;;;4.32;0.90;;;26.20;36.50;;;;;;5074999;28;20070;-70
2023/07/28 03:23:22;;;;;;;1.90;0.80;;;26.00;36.50;;;;;;5074948;28;20028;-68
2023/07/28 03:25:49;;;;;;;0.90;0.57;;;25.60;36.60;;;;;;5074666;28;20028;-69
2023/07/28 03:28:17;;;;;;;2.92;0.95;;;25.90;36.40;;;;;;5074691;28;20021;-69
2023/07/28 03:30:45;;;;;;;1.95;1.05;;;25.90;37.00;;;;;;5073717;28;20020;-69
2023/07/28 03:33:12;;;;;;;1.77;1.05;;;25.80;37.00;;;;;;5073683;28;20036;-69
2023/07/28 03:35:40;;;;;;;2.83;0.85;;;26.00;36.60;;;;;;5073642;28;20056;-68
2023/07/28 03:38:07;;;;;;;1.15;0.60;;;26.10;36.90;;;;;;5073516;28;20111;-69
2023/07/28 03:40:35;;;;;;;3.10;0.90;;;26.10;36.60;;;;;;5073676;28;20342;-68
2023/07/28 03:43:03;;;;;;;1.27;0.70;;;26.40;36.70;;;;;;5073598;28;20021;-69
2023/07/28 03:45:31;;;;;;;1.17;0.73;;;26.50;36.10;;;;;;5073638;28;20024;-68
2023/07/28 03:47:58;;;;;;;1.90;0.75;;;26.50;36.30;;;;;;5073389;28;20024;-68
2023/07/28 03:50:27;;;;;;;2.08;0.90;;;26.30;36.40;;;;;;5075479;28;20444;-69
2023/07/28 03:52:55;;;;;;;4.22;1.05;;;25.70;37.20;;;;;;5077317;28;20455;-69
2023/07/28 03:55:23;;;;;;;2.67;1.00;;;25.20;38.00;;;;;;5077154;28;20131;-68
2023/07/28 03:57:50;;;;;;;1.63;0.85;;;25.70;37.40;;;;;;5077134;28;20065;-68
2023/07/28 04:00:18;;;;;;;1.90;1.20;;;26.30;37.10;;;;;;5077292;28;20078;-68
2023/07/28 04:02:46;;;;;;;2.03;0.93;;;26.80;36.50;;;;;;5078238;28;20025;-68
2023/07/28 04:05:13;;;;;;;3.75;1.10;;;26.80;36.20;;;;;;5077011;28;20052;-69
2023/07/28 04:07:41;;;;;;;2.97;1.00;;;26.20;37.20;;;;;;5077070;28;20035;-69
2023/07/28 04:10:09;;;;;;;2.22;0.80;;;25.50;37.70;;;;;;5077092;28;20447;-69
2023/07/28 04:12:37;;;;;;;2.55;0.80;;;25.00;38.10;;;;;;5076318;28;20033;-68
2023/07/28 04:15:05;;;;;;;3.50;1.10;;;24.80;38.60;;;;;;5078244;28;20111;-68
2023/07/28 04:17:32;;;;;;;2.00;0.80;;;24.70;39.00;;;;;;5077740;28;20028;-68
2023/07/28 04:20:00;;;;;;;2.30;0.90;;;24.60;39.10;;;;;;5077012;28;20021;-68
2023/07/28 04:22:28;;;;;;;2.65;0.98;;;24.50;39.50;;;;;;5076865;28;20032;-68
2023/07/28 04:24:56;;;;;;;1.95;0.80;;;24.70;39.00;;;;;;5076869;28;20052;-69
2023/07/28 04:27:23;;;;;;;2.25;0.85;;;25.10;38.80;;;;;;5077611;28;20048;-68
2023/07/28 04:29:51;;;;;;;1.90;0.85;;;25.90;38.10;;;;;;5076743;28;20074;-69
2023/07/28 04:32:18;;;;;;;1.23;0.82;;;26.40;36.80;;;;;;5077642;28;20031;-69
2023/07/28 04:34:46;;;;;;;2.35;0.80;;;26.50;36.40;;;;;;5077499;28;20029;-68
2023/07/28 04:37:13;;;;;;;3.38;1.08;;;25.70;37.40;;;;;;5076091;28;20115;-68
2023/07/28 04:39:41;;;;;;;5.90;1.00;;;26.40;37.30;;;;;;5077527;28;20052;-62
2023/07/28 04:42:09;;;;;;;1.92;1.00;;;26.10;37.30;;;;;;5076169;28;20439;-62
2023/07/28 04:44:49;;;;;;;3.35;1.00;;;25.60;38.50;;;;;;5077079;28;20048;-67
2023/07/28 04:47:16;;;;;;;2.90;1.10;;;25.10;38.80;;;;;;5075830;28;20032;-69
2023/07/28 04:49:44;;;;;;;4.35;1.00;;;25.40;38.50;;;;;;5077217;28;20429;-69
2023/07/28 04:52:12;;;;;;;4.97;0.98;;;25.70;38.20;;;;;;5076335;28;20028;-69
2023/07/28 04:54:40;;;;;;;2.00;0.88;;;26.20;37.40;;;;;;5076240;28;20111;-67
2023/07/28 04:57:07;;;;;;;2.22;1.10;;;26.60;37.10;;;;;;5075967;28;20031;-69
2023/07/28 04:59:35;;;;;;;4.18;0.85;;;26.80;36.90;;;;;;5076051;28;20470;-68
2023/07/28 05:02:02;;;;;;;2.47;1.17;;;26.90;36.50;;;;;;5075881;28;20025;-68
2023/07/28 05:04:30;;;;;;;3.30;0.88;;;26.20;37.00;;;;;;5076740;28;20428;-68
2023/07/28 05:06:58;;;;;;;2.50;1.00;;;25.20;38.50;;;;;;5075878;28;20067;-68
2023/07/28 05:09:27;;;;;;;1.20;1.00;;;24.70;39.50;;;;;;5075839;28;20078;-68
2023/07/28 05:11:55;;;;;;;2.28;1.10;;;24.10;40.20;;;;;;5075492;28;20115;-68
2023/07/28 05:14:23;;;;;;;1.83;0.90;;;25.10;39.10;;;;;;5075410;28;20515;-68
2023/07/28 05:16:50;;;;;;;2.28;0.73;;;24.60;39.70;;;;;;5075376;28;20028;-69
2023/07/28 05:19:18;;;;;;;2.67;1.00;;;24.10;40.70;;;;;;5076358;28;20066;-68
2023/07/28 05:21:46;;;;;;;4.40;1.13;;;23.70;41.20;;;;;;5077024;28;20017;-68
2023/07/28 05:24:13;;;;;;;2.67;1.10;;;23.60;41.30;;;;;;5075811;28;20097;-68
2023/07/28 05:26:41;;;;;;;2.50;0.93;;;23.40;41.50;;;;;;5077329;28;20035;-67
2023/07/28 05:29:08;;;;;;;1.52;1.00;;;23.30;42.30;;;;;;5075700;28;20112;-68
2023/07/28 05:31:36;;;;;;;2.90;1.00;;;23.10;42.70;;;;;;5075492;28;20040;-67
2023/07/28 05:34:04;;;;;;;2.58;1.10;;;23.10;42.40;;;;;;5076823;28;20063;-63
2023/07/28 05:36:31;;;;;;;1.23;0.77;;;23.10;42.40;;;;;;5076168;28;20067;-68
2023/07/28 05:38:59;;;;;;;2.22;1.02;;;23.00;42.80;;;;;;5075416;28;20144;-68
2023/07/28 05:41:27;;;;;;;2.53;0.95;;;23.00;42.80;;;;;;5075541;28;20025;-68
2023/07/28 05:43:55;;;;;;;2.53;0.82;;;23.00;42.90;;;;;;5076382;28;20085;-68
2023/07/28 05:46:22;;;;;;;3.55;1.02;;;22.80;43.30;;;;;;5074941;28;20027;-69
2023/07/28 05:48:50;;;;;;;2.60;1.00;;;22.80;43.40;;;;;;5076109;28;20028;-65
2023/07/28 05:51:18;;;;;;;3.17;1.00;;;22.80;43.40;;;;;;5074891;28;20029;-64
2023/07/28 05:53:45;;;;;;;1.58;0.90;;;22.80;43.40;;;;;;5074784;28;20421;-63
2023/07/28 05:56:13;;;;;;;3.83;1.00;;;22.70;43.40;;;;;;5075808;28;20028;-63
2023/07/28 05:58:40;;;;;;;2.80;0.85;;;22.70;43.70;;;;;;5075740;28;20059;-63
2023/07/28 06:01:08;;;;;;;5.22;1.10;;;22.60;43.90;;;;;;5074563;28;20447;-63
2023/07/28 06:03:36;;;;;;;4.65;0.90;;;22.50;43.70;;;;;;5074495;28;20052;-65
2023/07/28 06:06:03;;;;;;;2.10;0.90;;;22.50;43.90;;;;;;5075607;28;20028;-63
2023/07/28 06:08:34;;;;;;;1.88;0.80;;;22.50;44.00;;;;;;5075526;28;20099;-64
2023/07/28 06:11:05;;;;;;;3.13;1.10;;;22.20;44.40;;;;;;5074672;28;20359;-63
2023/07/28 06:13:33;;;;;;;2.13;0.95;;;22.20;44.70;;;;;;5075002;28;20052;-65
2023/07/28 06:16:01;;;;;;;3.40;1.48;;;22.10;44.80;;;;;;5075756;28;20052;-67
2023/07/28 06:18:28;;;;;;;2.20;1.02;;;22.10;45.10;;;;;;5074375;28;20036;-67
2023/07/28 06:20:56;;;;;;;3.00;0.90;;;22.00;45.30;;;;;;5074220;28;20446;-62
2023/07/28 06:23:24;;;;;;;5.25;1.02;;;22.00;45.20;;;;;;5074242;28;20025;-63
2023/07/28 06:25:51;;;;;;;3.60;0.70;;;21.90;45.60;;;;;;5073851;28;20488;-62
2023/07/28 06:28:19;;;;;;;3.20;1.20;;;21.80;45.60;;;;;;5074362;28;20039;-68
2023/07/28 06:30:46;;;;;;;2.13;1.00;;;21.80;45.50;;;;;;5075152;28;20025;-68
2023/07/28 06:33:14;;;;;;;3.95;0.95;;;21.70;46.00;;;;;;5074025;28;20028;-68
2023/07/28 06:35:42;;;;;;;2.78;1.48;;;21.70;45.80;;;;;;5075142;28;20084;-67
2023/07/28 06:38:09;;;;;;;3.22;0.80;;;21.60;45.90;;;;;;5074141;28;20020;-69
2023/07/28 06:40:37;;;;;;;3.15;0.90;;;21.70;45.70;;;;;;5074262;28;20158;-68
2023/07/28 06:43:07;;;;;;;4.45;1.00;;;21.60;45.90;;;;;;5074707;28;20013;-68
2023/07/28 06:45:35;;;;;;;2.58;1.17;;;21.60;46.00;;;;;;5074357;28;20396;-68
2023/07/28 06:48:03;;;;;;;3.17;1.60;;;21.50;46.40;;;;;;5073915;28;20024;-68
2023/07/28 06:50:32;;;;;;;2.03;0.95;;;21.40;46.30;;;;;;5075041;28;20071;-63
2023/07/28 06:52:59;;;;;;;3.30;1.08;;;21.30;46.20;;;;;;5074887;28;20076;-64
2023/07/28 06:55:27;;;;;;;2.35;0.80;;;21.30;46.20;;;;;;5073877;28;20492;-62
2023/07/28 06:57:54;;;;;;;3.65;0.90;;;21.20;46.40;;;;;;5073752;28;20024;-64
2023/07/28 07:00:23;;;;;;;3.75;1.35;;;21.10;46.50;;;;;;5074009;28;20017;-64
2023/07/28 07:02:52;;;;;;;1.92;1.00;;;21.10;46.50;;;;;;5074964;28;20021;-63
2023/07/28 07:05:20;;;;;;;2.28;1.05;;;21.10;46.60;;;;;;5073555;28;20063;-64
2023/07/28 07:07:47;;;;;;;3.10;1.13;;;21.00;46.90;;;;;;5073689;28;20055;-62
2023/07/28 07:10:15;;;;;;;2.35;0.85;;;20.90;46.80;;;;;;5073962;28;20060;-70
2023/07/28 07:12:42;;;;;;;2.80;1.00;;;20.90;47.00;;;;;;5074943;28;20028;-68
2023/07/28 07:15:11;;;;;;;5.40;1.58;;;20.80;47.30;;;;;;5073749;28;20389;-68
2023/07/28 07:17:39;;;;;;;5.30;1.65;;;20.70;47.40;;;;;;5073866;28;20027;-64
2023/07/28 07:20:08;;;;;;;5.95;2.50;;;20.70;47.60;;;;;;5073877;28;20074;-64
2023/07/28 07:22:35;;;;;;;4.63;1.63;;;20.60;47.80;;;;;;5073718;28;20028;-63
2023/07/28 07:25:04;;;;;;;7.07;2.17;;;20.60;47.70;;;;;;5074133;28;20129;-63
2023/07/28 07:27:31;;;;;;;4.05;1.15;;;20.50;48.40;;;;;;5077914;28;20099;-63
2023/07/28 07:29:59;;;;;;;2.60;1.00;;;20.40;48.40;;;;;;5078803;28;20020;-63
2023/07/28 07:32:26;;;;;;;3.15;1.20;;;20.40;48.40;;;;;;5077767;28;20028;-63
2023/07/28 07:34:54;;;;;;;4.43;1.58;;;20.40;48.80;;;;;;5077778;28;20378;-64
2023/07/28 07:37:21;;;;;;;1.45;0.73;;;20.20;48.70;;;;;;5077620;28;20024;-63
2023/07/28 07:39:50;;;;;;;2.72;1.25;;;20.20;49.00;;;;;;5078778;28;20021;-63
2023/07/28 07:42:17;;;;;;;3.53;0.90;;;20.00;49.70;;;;;;5077575;28;20083;-64
2023/07/28 07:44:45;;;;;;;2.00;0.90;;;19.90;49.80;;;;;;5077354;28;20031;-63
2023/07/28 07:47:17;;;;;;;4.30;0.93;;;19.90;50.20;;;;;;5077631;28;20116;-68
2023/07/28 07:49:44;;;;;;;2.50;0.90;;;19.80;50.30;;;;;;5077474;28;20029;-69
2023/07/28 07:52:12;;;;;;;3.03;1.02;;;19.60;50.50;;;;;;5077419;28;20385;-62
2023/07/28 07:54:39;;;;;;;3.70;1.00;;;19.60;50.30;;;;;;5077193;28;20031;-64
2023/07/28 07:57:07;;;;;;;2.03;1.17;;;19.60;50.40;;;;;;5076838;28;20021;-64
2023/07/28 07:59:35;;;;;;;2.47;1.20;;;19.60;50.60;;;;;;5078378;28;20032;-63
2023/07/28 08:02:02;;;;;;;3.88;1.30;;;19.50;50.50;;;;;;5078362;28;20036;-68
2023/07/28 08:04:31;;;;;;;1.80;1.15;;;19.50;50.70;;;;;;5076986;28;20044;-68
2023/07/28 08:06:59;;;;;;;2.83;1.30;;;19.40;51.00;;;;;;5076649;28;20025;-68
2023/07/28 08:09:27;;;;;;;4.30;1.50;;;19.40;51.10;;;;;;5077111;28;20048;-63
2023/07/28 08:11:55;;;;;;;4.47;1.20;;;19.30;50.90;;;;;;5077125;28;20362;-63
2023/07/28 08:14:23;;;;;;;3.50;1.40;;;19.40;51.00;;;;;;5077294;28;20039;-64
2023/07/28 08:16:50;;;;;;;2.47;1.10;;;19.30;51.10;;;;;;5076950;28;20020;-64
2023/07/28 08:19:18;;;;;;;3.30;1.42;;;19.20;51.60;;;;;;5076972;28;20098;-63
2023/07/28 08:21:45;;;;;;;4.57;1.60;;;19.00;52.10;;;;;;5077981;28;20018;-63
2023/07/28 08:24:14;;;;;;;6.15;2.20;;;18.80;52.80;;;;;;5077888;28;20021;-64
2023/07/28 08:26:41;;;;;;;3.83;2.53;;;18.50;54.10;;;;;;5076740;28;20469;-62
2023/07/28 08:29:08;;;;;;;4.00;2.35;;;18.20;55.30;;;;;;5075742;28;20040;-68
2023/07/28 08:31:36;;;;;;;3.10;1.90;;;18.00;55.80;;;;;;5077011;28;20269;-68
2023/07/28 08:34:03;;;;;;;4.43;1.80;;;17.70;56.20;;;;;;5075286;28;20134;-63
2023/07/28 08:36:31;;;;;;;3.65;1.73;;;17.50;56.70;;;;;;5076574;28;20021;-62
2023/07/28 08:38:58;;;;;;;4.25;1.50;;;17.30;57.90;;;;;;5076854;28;20071;-62
2023/07/28 08:41:26;;;;;;;3.03;1.45;;;17.10;58.90;;;;;;5077208;28;20063;-62
2023/07/28 08:43:55;;;;;;;3.47;1.92;;;17.00;58.50;;;;;;5076397;28;20051;-62
2023/07/28 08:46:23;;;;;;;2.83;1.50;;;17.00;58.70;;;;;;5059846;28;20331;-63
2023/07/28 08:48:51;;;;;;;3.05;1.52;;;17.10;58.90;;;;;;5077321;28;20331;-63
2023/07/28 08:51:18;;;;;;;2.65;1.92;;;17.10;59.00;;;;;;5077260;28;20358;-63
2023/07/28 08:53:46;;;;;;;3.03;1.85;;;17.10;59.60;;;;;;5077162;28;20035;-63
2023/07/28 08:56:13;;;;;;;4.60;1.80;;;16.90;59.40;;;;;;5076106;28;20024;-63
2023/07/28 08:58:41;;;;;;;2.90;1.90;;;16.90;59.40;;;;;;5077207;28;20017;-62
2023/07/28 09:01:09;;;;;;;2.88;2.03;;;16.90;59.90;;;;;;5075934;28;20100;-63
2023/07/28 09:03:40;;;;;;;3.78;1.40;;;16.90;59.90;;;;;;5075994;28;20036;-63
2023/07/28 09:06:11;;;;;;;5.70;2.03;;;16.80;60.10;;;;;;5076005;28;20107;-62
2023/07/28 09:08:39;;;;;;;6.00;2.90;;;16.80;60.70;;;;;;5075775;28;20032;-63
2023/07/28 09:11:07;;;;;;;5.25;2.75;;;16.50;61.90;;;;;;5077036;28;20104;-63
2023/07/28 09:13:41;;;;;;;5.22;3.55;;;16.40;62.60;;;;;;5076927;28;20021;-64
2023/07/28 09:16:20;;;;;;;7.10;3.83;;;16.50;62.20;;;;;;5075831;28;20024;-62
2023/07/28 09:18:47;;;;;;;5.60;3.35;;;16.40;62.40;;;;;;5075776;28;20104;-62
2023/07/28 09:21:20;;;;;;;5.55;3.38;;;16.20;63.20;;;;;;5075745;28;20434;-63
2023/07/28 09:23:49;;;;;;;5.57;3.22;;;16.10;63.70;;;;;;5075736;28;20115;-63
2023/07/28 09:26:17;;;;;;;8.50;4.57;;;16.00;64.60;;;;;;5075029;28;20048;-63
2023/07/28 09:28:45;;;;;;;7.82;4.32;;;15.80;65.20;;;;;;5076582;28;20025;-67
2023/07/28 09:31:14;;;;;;;9.75;5.10;;;15.80;65.30;;;;;;5076511;28;20111;-67
2023/07/28 09:33:46;;;;;;;7.90;5.55;;;15.80;64.90;;;;;;5075676;28;20067;-67
2023/07/28 09:36:22;;;;;;;8.15;6.15;;;15.70;65.60;;;;;;5075450;28;20035;-67
2023/07/28 09:38:51;;;;;;;6.35;3.95;;;15.50;65.70;;;;;;5075403;28;20450;-67
2023/07/28 09:41:20;;;;;;;6.13;3.58;;;15.40;66.70;;;;;;5075328;28;20063;-67
2023/07/28 09:43:50;;;;;;;4.90;3.22;;;15.40;66.50;;;;;;5076181;28;20062;-67
2023/07/28 09:46:20;;;;;;;6.72;4.85;;;15.30;66.70;;;;;;5076089;28;20485;-67
2023/07/28 09:48:52;;;;;;;6.72;5.35;;;15.30;67.00;;;;;;5058172;28;20033;-67
2023/07/28 09:51:22;;;;;;;7.70;4.43;;;15.30;66.60;;;;;;5076127;28;20461;-67
2023/07/28 09:54:27;;;;;;;6.20;2.55;;;15.20;67.10;;;;;;5075979;28;20032;-67
2023/07/28 09:56:57;;;;;;;6.82;3.70;;;15.10;67.90;;;;;;5063299;28;20028;-67
2023/07/28 09:59:35;;;;;;;6.32;3.70;;;15.00;68.20;;;;;;5058468;28;20093;-66
2023/07/28 10:02:04;;;;;;;7.75;4.32;;;15.00;68.40;;;;;;5075918;28;20025;-67
2023/07/28 10:04:32;;;;;;;6.22;4.75;;;15.00;68.70;;;;;;5058303;28;20068;-67
2023/07/28 10:07:01;;;;;;;7.95;6.15;;;14.90;69.30;;;;;;5075712;28;20443;-67
2023/07/28 10:09:33;;;;;;;7.05;4.32;;;14.80;69.00;;;;;;5075691;28;20024;-67
2023/07/28 10:12:03;;;;;;;4.80;3.22;;;14.70;69.30;;;;;;5074826;28;20046;-67
2023/07/28 10:14:39;;;;;;;5.22;2.92;;;14.60;69.50;;;;;;5075983;28;20052;-66
2023/07/28 10:17:15;;;;;;;7.43;3.80;;;14.50;69.50;;;;;;5074562;28;20335;-66
2023/07/28 10:19:43;;;;;;;14.55;6.78;;;14.60;69.30;;;;;;5075607;28;20021;-67
2023/07/28 10:22:12;;;;;;;9.02;6.00;;;14.80;68.90;;;;;;5074498;28;20074;-67
2023/07/28 10:24:52;;;;;;;6.65;4.32;;;14.90;68.50;;;;;;5074545;28;20035;-67
2023/07/28 10:27:39;;;;;;;6.65;4.05;;;15.00;67.70;;;;;;5058092;28;20028;-67
2023/07/28 10:30:15;;;;;;;7.85;3.90;;;15.10;66.80;;;;;;5075368;28;20113;-67
2023/07/28 10:32:45;;;;;;;6.93;3.65;;;15.30;65.90;;;;;;5074016;28;20025;-66
2023/07/28 10:35:15;;;;;;;5.15;3.30;;;15.50;65.90;;;;;;5075163;28;20042;-67
2023/07/28 10:37:47;;;;;;;5.22;3.20;;;15.50;65.70;;;;;;5075008;28;20319;-67
2023/07/28 10:40:35;;;;;;;6.05;3.00;;;15.50;65.80;;;;;;5057987;28;20683;-67
2023/07/28 10:43:06;;;;;;;7.18;3.10;;;15.60;64.30;;;;;;5074363;28;20120;-66
2023/07/28 10:45:34;;;;;;;5.13;3.00;;;15.80;63.60;;;;;;5075327;28;20021;-66
2023/07/28 10:48:03;;;;;;;6.00;2.97;;;15.90;63.30;;;;;;5075034;28;20028;-66
2023/07/28 10:50:32;;;;;;;4.78;2.47;;;16.00;63.00;;;;;;5075096;28;20434;-67
2023/07/28 10:52:59;;;;;;;4.43;2.30;;;16.10;62.10;;;;;;5075133;28;20103;-68
2023/07/28 10:55:28;;;;;;;4.22;2.50;;;16.30;61.60;;;;;;5074038;28;20055;-67
2023/07/28 10:57:58;;;;;;;3.20;2.40;;;16.50;60.80;;;;;;5075104;28;20096;-67
2023/07/28 11:00:26;;;;;;;6.35;2.60;;;16.50;60.90;;;;;;5074009;28;20035;-67
2023/07/28 11:02:55;;;;;;;5.40;2.50;;;16.50;61.00;;;;;;5075074;28;20025;-67
2023/07/28 11:05:32;;;;;;;3.22;2.28;;;16.50;61.00;;;;;;5073905;28;20053;-67
2023/07/28 11:08:02;;;;;;;4.13;2.30;;;16.50;60.70;;;;;;5073837;28;20067;-67
2023/07/28 11:10:31;;;;;;;6.18;2.47;;;16.50;60.60;;;;;;5074191;28;20028;-67
2023/07/28 11:13:03;;;;;;;3.85;2.35;;;16.50;60.60;;;;;;5075066;28;20103;-67
2023/07/28 11:15:33;;;;;;;5.32;2.72;;;16.50;60.70;;;;;;5074218;28;20067;-66
2023/07/28 11:18:01;;;;;;;4.85;2.60;;;16.50;60.40;;;;;;5057640;28;20024;-66
2023/07/28 11:20:29;;;;;;;5.53;2.70;;;16.50;60.30;;;;;;5073578;28;20059;-65
2023/07/28 11:22:59;;;;;;;4.00;2.22;;;16.50;60.50;;;;;;5074836;28;20074;-66
2023/07/28 11:25:29;;;;;;;4.47;2.47;;;16.50;60.70;;;;;;5073905;28;20405;-66
2023/07/28 11:27:58;;;;;;;6.82;2.63;;;16.40;61.20;;;;;;5073899;28;20510;-66
2023/07/28 11:30:25;;;;;;;5.22;2.28;;;16.40;61.10;;;;;;5057338;28;20033;-66
2023/07/28 11:32:54;;;;;;;4.72;2.88;;;16.40;61.30;;;;;;5074761;28;20032;-66
2023/07/28 11:35:23;;;;;;;4.88;2.78;;;16.30;62.50;;;;;;5073605;28;20040;-67
2023/07/28 11:37:53;;;;;;;6.72;2.90;;;16.30;62.10;;;;;;5073621;28;20028;-67
2023/07/28 11:40:25;;;;;;;4.80;3.03;;;16.20;61.90;;;;;;5073652;28;20048;-66
2023/07/28 11:42:57;;;;;;;9.73;3.60;;;16.20;62.20;;;;;;5073623;28;20452;-66
2023/07/28 11:45:24;;;;;;;3.63;2.47;;;16.10;61.70;;;;;;5057095;28;20032;-66
2023/07/28 11:48:08;;;;;;;5.25;3.08;;;16.10;61.90;;;;;;5073480;28;20110;-66
2023/07/28 11:50:45;;;;;;;5.20;3.10;;;16.10;61.90;;;;;;5073575;28;20025;-66
2023/07/28 11:53:13;;;;;;;4.25;2.95;;;16.10;62.70;;;;;;5073329;28;20363;-66
2023/07/28 11:55:42;;;;;;;7.07;3.20;;;15.90;64.40;;;;;;5073380;28;20074;-66
2023/07/28 11:58:11;;;;;;;6.30;3.00;;;15.80;64.90;;;;;;5074382;28;20024;-66
2023/07/28 12:00:42;;;;;;;5.60;2.85;;;15.60;65.40;;;;;;5073539;28;20024;-67
2023/07/28 12:03:13;;;;;;;6.65;3.40;;;15.50;65.40;;;;;;5073094;28;20048;-64
2023/07/28 12:05:59;;;;;;;6.18;3.38;;;15.50;65.70;;;;;;5074451;28;20024;-66
2023/07/28 12:08:37;;;;;;;4.57;3.47;;;15.40;65.90;;;;;;5073421;28;20036;-68
2023/07/28 12:11:06;;;;;;;5.15;3.55;;;15.20;67.00;;;;;;5040845;28;20032;-67
2023/07/28 12:13:46;;;;;;;5.38;3.60;;;15.20;67.40;;;;;;5077085;28;20021;-66
2023/07/28 12:16:48;;;;;;;4.18;3.30;;;15.10;67.90;;;;;;5078424;28;20019;-67
2023/07/28 12:19:15;;;;;;;5.13;3.40;;;14.90;68.50;;;;;;5077094;28;20123;-67
2023/07/28 12:21:43;;;;;;;5.03;3.45;;;15.00;68.20;;;;;;5076954;28;20053;-67
2023/07/28 12:24:10;;;;;;;9.25;3.67;;;14.90;68.20;;;;;;5076833;28;20445;-67
2023/07/28 12:26:38;;;;;;;6.43;3.35;;;14.70;69.50;;;;;;5076822;28;20451;-67
2023/07/28 12:29:06;;;;;;;5.28;3.40;;;14.60;70.30;;;;;;5060282;28;20028;-67
2023/07/28 12:31:34;;;;;;;6.68;4.60;;;14.40;70.50;;;;;;5077050;28;20567;-67
2023/07/28 12:34:01;;;;;;;6.05;3.55;;;14.30;70.70;;;;;;5077662;28;20093;-66
2023/07/28 12:36:29;;;;;;;6.43;3.08;;;14.20;71.00;;;;;;5076827;28;20103;-67
2023/07/28 12:38:57;;;;;;;5.85;3.28;;;14.10;71.30;;;;;;5077744;28;20036;-65
2023/07/28 12:41:25;;;;;;;5.95;3.40;;;14.10;71.20;;;;;;5077796;28;20048;-67
2023/07/28 12:43:52;;;;;;;6.03;2.90;;;14.20;70.90;;;;;;5077835;28;20354;-67
2023/07/28 12:46:20;;;;;;;7.55;3.15;;;14.20;71.40;;;;;;5076623;28;20040;-67
2023/07/28 12:48:47;;;;;;;4.85;3.53;;;14.20;71.80;;;;;;5076616;28;20363;-67
2023/07/28 12:51:15;;;;;;;6.00;3.17;;;14.30;71.40;;;;;;5077484;28;20031;-67
2023/07/28 12:53:42;;;;;;;5.60;3.15;;;14.30;70.90;;;;;;5076472;28;20056;-68
2023/07/28 12:56:10;;;;;;;4.70;3.38;;;14.10;71.80;;;;;;5076500;28;20063;-67